Time;durP1;ratioP1;P1;durP2;ratioP2;P2;SDS_P1;SDS_P2;PMS_P1;PMS_P2;Temp;Humidity;BMP_temperature;BMP_pressure;BME280_temperature;BME280_humidity;BME280_pressure;Samples;Min_cycle;Max_cycle;Signal;HPM_P1;HPM_P2
2022/06/16 00:00:50;;;;;;;11.07;3.75;;;14.40;99.90;;;;;;4880583;28;644539;-87
2022/06/16 00:03:20;;;;;;;11.18;4.00;;;14.40;99.90;;;;;;4951562;28;20046;-86
2022/06/16 00:05:50;;;;;;;10.27;4.10;;;14.40;99.90;;;;;;4881655;28;268823;-86
2022/06/16 00:08:19;;;;;;;10.15;3.78;;;14.30;99.90;;;;;;4942355;28;20054;-88
2022/06/16 00:13:40;;;;;;;10.68;3.90;;;14.30;99.90;;;;;;4960095;28;20070;-87
2022/06/16 00:16:12;;;;;;;10.00;3.53;;;14.30;99.90;;;;;;4806542;28;3008102;-86
2022/06/16 00:18:41;;;;;;;11.30;4.00;;;14.30;99.90;;;;;;4930231;28;20051;-86
2022/06/16 00:21:08;;;;;;;9.02;3.65;;;14.20;99.90;;;;;;4905148;28;271232;-86
2022/06/16 00:23:35;;;;;;;10.82;3.58;;;14.30;99.90;;;;;;4936208;28;20058;-86
2022/06/16 00:26:09;;;;;;;9.45;3.40;;;14.10;99.90;;;;;;4890240;28;249446;-86
2022/06/16 00:28:35;;;;;;;10.85;3.35;;;14.10;99.90;;;;;;4965837;28;20157;-87
2022/06/16 00:31:04;;;;;;;9.02;3.35;;;14.10;99.90;;;;;;4882713;28;258977;-86
2022/06/16 00:33:36;;;;;;;10.25;4.28;;;14.00;99.90;;;;;;4942378;28;20049;-87
2022/06/16 00:36:08;;;;;;;11.73;4.25;;;14.00;99.90;;;;;;4895327;28;208026;-87
2022/06/16 00:38:44;;;;;;;12.68;4.32;;;14.00;99.90;;;;;;4952714;28;20102;-87
2022/06/16 00:41:14;;;;;;;12.93;4.70;;;13.90;99.90;;;;;;4860257;28;260134;-87
2022/06/16 00:43:44;;;;;;;11.52;4.53;;;13.80;99.90;;;;;;4934187;28;20050;-87
2022/06/16 00:46:33;;;;;;;11.18;4.10;;;13.70;99.90;;;;;;4896128;28;296830;-86
2022/06/16 00:49:06;;;;;;;12.05;4.22;;;13.70;99.90;;;;;;4957090;28;20061;-87
2022/06/16 00:51:43;;;;;;;11.82;4.38;;;13.70;99.90;;;;;;4905808;28;202325;-87
2022/06/16 00:54:29;;;;;;;11.32;3.70;;;13.60;99.90;;;;;;4957179;28;226514;-87
2022/06/16 00:57:07;;;;;;;9.98;3.60;;;13.60;99.90;;;;;;4923962;28;226116;-87
2022/06/16 00:59:41;;;;;;;9.70;3.50;;;13.50;99.90;;;;;;4949081;28;243370;-86
2022/06/16 01:02:10;;;;;;;10.73;4.50;;;13.40;99.90;;;;;;4948037;28;168566;-87
2022/06/16 01:04:52;;;;;;;9.38;3.80;;;13.40;99.90;;;;;;4949763;28;172815;-87
2022/06/16 01:07:32;;;;;;;10.43;3.78;;;13.40;99.90;;;;;;4897929;28;228559;-87
2022/06/16 01:09:59;;;;;;;10.20;3.70;;;13.40;99.90;;;;;;4949852;28;247078;-86
2022/06/16 01:15:42;;;;;;;9.88;3.40;;;13.30;99.90;;;;;;4920480;28;277944;-87
2022/06/16 01:18:34;;;;;;;10.18;3.20;;;13.30;99.90;;;;;;4974942;28;20058;-86
2022/06/16 01:21:21;;;;;;;9.70;3.47;;;13.30;99.90;;;;;;4900269;28;185827;-86
2022/06/16 01:23:48;;;;;;;10.88;3.53;;;13.30;99.90;;;;;;4960160;28;20073;-86
2022/06/16 01:26:31;;;;;;;12.48;3.88;;;13.30;99.90;;;;;;4903159;28;241016;-86
2022/06/16 01:29:12;;;;;;;9.93;3.22;;;13.30;99.90;;;;;;4953536;28;20042;-87
2022/06/16 01:35:41;;;;;;;;;;;;;;;;;;;;;
2022/06/16 01:38:53;;;;;;;11.43;3.40;;;13.30;99.90;;;;;;4923893;28;206832;-85
2022/06/16 01:42:22;;;;;;;9.18;3.20;;;13.30;99.90;;;;;;4912818;28;248647;-86
2022/06/16 01:45:25;;;;;;;10.85;3.85;;;13.40;99.90;;;;;;4958921;28;47478;-86
2022/06/16 01:51:09;;;;;;;9.13;3.15;;;13.40;99.90;;;;;;4824141;29;242609;-85
2022/06/16 01:53:49;;;;;;;9.40;3.22;;;13.40;99.90;;;;;;4909639;29;20261;-87
2022/06/16 01:56:29;;;;;;;11.40;3.50;;;13.40;99.90;;;;;;4829429;29;207292;-87
2022/06/16 01:59:04;;;;;;;13.90;3.63;;;13.40;99.90;;;;;;4903725;29;20048;-87
2022/06/16 02:01:38;;;;;;;9.65;3.88;;;13.40;99.90;;;;;;4826701;29;200697;-87
2022/06/16 02:04:15;;;;;;;11.55;3.65;;;13.40;99.90;;;;;;4886086;29;110118;-88
2022/06/16 02:06:48;;;;;;;11.57;3.55;;;13.40;99.90;;;;;;4774058;29;1951880;-87
2022/06/16 02:09:18;;;;;;;11.75;3.45;;;13.40;99.90;;;;;;4892879;28;213182;-87
2022/06/16 02:12:05;;;;;;;12.95;3.70;;;13.40;99.90;;;;;;4881918;29;228352;-89
2022/06/16 02:14:41;;;;;;;9.88;3.97;;;13.40;99.90;;;;;;4911031;29;26531;-87
2022/06/16 02:17:10;;;;;;;10.15;3.97;;;13.40;99.90;;;;;;4849836;29;210284;-87
2022/06/16 02:19:37;;;;;;;10.00;3.55;;;13.40;99.90;;;;;;4881615;29;95710;-87
2022/06/16 02:22:07;;;;;;;11.02;3.30;;;13.40;99.90;;;;;;4844408;29;211377;-87
2022/06/16 02:24:33;;;;;;;11.02;3.50;;;13.40;99.90;;;;;;4885089;28;227632;-86
2022/06/16 02:27:00;;;;;;;13.43;4.18;;;13.40;99.90;;;;;;4872499;28;182803;-85
2022/06/16 02:29:46;;;;;;;10.13;3.90;;;13.40;99.90;;;;;;4895088;28;254465;-87
2022/06/16 02:32:18;;;;;;;10.85;3.70;;;13.30;99.90;;;;;;4869981;28;175431;-86
2022/06/16 02:34:52;;;;;;;9.45;3.70;;;13.40;99.90;;;;;;4897237;28;263551;-87
2022/06/16 02:37:43;;;;;;;10.63;3.90;;;13.30;99.90;;;;;;4854975;28;302445;-87
2022/06/16 02:40:38;;;;;;;10.43;4.00;;;13.30;99.90;;;;;;4917872;29;89677;-86
2022/06/16 02:43:31;;;;;;;9.95;4.38;;;13.30;99.90;;;;;;4897120;28;249441;-87
2022/06/16 02:46:14;;;;;;;10.13;4.28;;;13.30;99.90;;;;;;4851058;28;279770;-86
2022/06/16 02:49:11;;;;;;;11.43;4.60;;;13.20;99.90;;;;;;4927678;28;20165;-87
2022/06/16 02:51:57;;;;;;;11.13;4.68;;;13.20;99.90;;;;;;4874812;28;235924;-86
2022/06/16 02:55:00;;;;;;;13.45;4.97;;;13.20;99.90;;;;;;4908631;28;305528;-87
2022/06/16 02:57:56;;;;;;;11.60;4.60;;;13.10;99.90;;;;;;4873080;28;150375;-87
2022/06/16 03:00:33;;;;;;;9.85;4.57;;;13.10;99.90;;;;;;4847393;28;246191;-87
2022/06/16 03:03:15;;;;;;;10.13;4.28;;;13.10;99.90;;;;;;4929799;28;20046;-86
2022/06/16 03:05:42;;;;;;;13.57;4.63;;;13.10;99.90;;;;;;4734275;29;3031915;-86
2022/06/16 03:08:09;;;;;;;11.13;4.28;;;13.10;99.90;;;;;;4917996;28;20066;-86
2022/06/16 03:10:53;;;;;;;12.50;4.70;;;13.00;99.90;;;;;;4856859;28;207302;-86
2022/06/16 03:13:23;;;;;;;12.10;4.20;;;13.00;99.90;;;;;;4935858;28;20115;-86
2022/06/16 03:15:51;;;;;;;14.40;4.63;;;13.00;99.90;;;;;;4852586;28;212741;-87
2022/06/16 03:18:24;;;;;;;11.63;4.63;;;13.00;99.90;;;;;;4893153;29;20054;-87
2022/06/16 03:21:09;;;;;;;9.88;4.20;;;13.00;99.90;;;;;;4872684;28;173575;-87
2022/06/16 03:23:39;;;;;;;14.50;4.93;;;12.90;99.90;;;;;;4975377;28;20069;-87
2022/06/16 03:26:05;;;;;;;10.05;4.25;;;12.90;99.90;;;;;;4920823;28;203177;-87
2022/06/16 03:28:36;;;;;;;11.57;4.68;;;12.90;99.90;;;;;;4981718;28;20058;-85
2022/06/16 03:31:05;;;;;;;9.60;4.22;;;12.90;99.90;;;;;;4916587;28;213520;-86
2022/06/16 03:33:32;;;;;;;11.05;4.15;;;12.90;99.90;;;;;;4955619;28;20663;-86
2022/06/16 03:36:05;;;;;;;12.55;4.47;;;12.90;99.90;;;;;;4918017;28;203145;-86
2022/06/16 03:38:41;;;;;;;12.02;4.65;;;12.90;99.90;;;;;;4958286;28;20050;-86
2022/06/16 03:41:11;;;;;;;11.10;3.63;;;12.90;99.90;;;;;;4909963;28;212259;-86
2022/06/16 03:43:43;;;;;;;12.20;4.10;;;12.80;99.90;;;;;;4955966;28;20058;-87
2022/06/16 03:46:11;;;;;;;13.10;4.75;;;12.90;99.90;;;;;;4937809;28;133400;-87
2022/06/16 03:48:43;;;;;;;12.77;5.40;;;12.80;99.90;;;;;;4981817;28;20064;-87
2022/06/16 03:51:13;;;;;;;11.38;4.50;;;12.80;99.90;;;;;;4940888;28;220142;-86
2022/06/16 03:53:44;;;;;;;12.30;4.60;;;12.80;99.90;;;;;;4967999;28;20054;-87
2022/06/16 03:56:11;;;;;;;11.32;4.90;;;12.80;99.90;;;;;;4901485;28;228692;-87
2022/06/16 03:58:59;;;;;;;11.60;4.80;;;12.80;99.90;;;;;;4967859;28;20054;-86
2022/06/16 04:01:25;;;;;;;14.63;5.40;;;12.70;99.90;;;;;;4939688;28;214416;-86
2022/06/16 04:04:03;;;;;;;12.43;5.35;;;12.80;99.90;;;;;;4966974;28;20168;-87
2022/06/16 04:06:36;;;;;;;12.77;5.30;;;12.80;99.90;;;;;;4900886;28;240937;-87
2022/06/16 04:09:06;;;;;;;16.08;5.63;;;12.80;99.90;;;;;;4988831;28;20046;-87
2022/06/16 04:11:41;;;;;;;12.57;4.93;;;12.90;99.90;;;;;;4899160;28;308427;-87
2022/06/16 04:14:12;;;;;;;12.03;5.23;;;12.90;99.90;;;;;;4957144;28;273456;-88
2022/06/16 04:16:45;;;;;;;16.02;5.45;;;13.00;99.90;;;;;;4929881;28;201533;-87
2022/06/16 04:19:21;;;;;;;12.80;5.40;;;13.00;99.90;;;;;;4957315;28;232171;-87
2022/06/16 04:21:53;;;;;;;11.68;5.68;;;13.10;99.90;;;;;;4927729;28;217252;-87
2022/06/16 04:24:26;;;;;;;15.48;6.00;;;13.20;99.90;;;;;;4938991;28;265716;-87
2022/06/16 04:26:57;;;;;;;12.95;6.15;;;13.20;99.90;;;;;;4918453;28;232196;-87
2022/06/16 04:29:28;;;;;;;12.30;6.05;;;13.30;99.90;;;;;;4955218;28;245953;-87
2022/06/16 04:31:54;;;;;;;13.30;6.53;;;13.40;99.90;;;;;;4944750;28;183806;-88
2022/06/16 04:34:20;;;;;;;15.60;6.57;;;13.40;99.90;;;;;;4965281;28;214052;-88
2022/06/16 04:37:00;;;;;;;12.23;6.00;;;13.40;99.90;;;;;;4917956;28;210627;-87
2022/06/16 04:39:29;;;;;;;11.30;6.47;;;13.50;99.90;;;;;;4969880;28;207563;-88
2022/06/16 04:42:07;;;;;;;13.63;6.90;;;13.60;99.90;;;;;;4916532;28;235150;-87
2022/06/16 04:44:46;;;;;;;;;;;;;;;;;;;;;
2022/06/16 04:47:25;;;;;;;11.15;5.45;;;13.80;99.90;;;;;;4917702;28;294053;-87
2022/06/16 04:49:56;;;;;;;13.43;5.90;;;13.90;99.90;;;;;;4647350;28;8812336;-87
2022/06/16 04:52:23;;;;;;;;;;;14.00;99.90;;;;;;4917026;28;255260;-87
2022/06/16 04:54:57;;;;;;;11.20;6.00;;;14.10;99.90;;;;;;4956840;28;75344;-87
2022/06/16 04:57:26;;;;;;;18.17;5.70;;;14.10;99.90;;;;;;4922348;28;225618;-88
2022/06/16 04:59:58;;;;;;;14.13;6.22;;;14.30;99.90;;;;;;4954175;28;276209;-88
2022/06/16 05:02:34;;;;;;;12.60;5.30;;;14.30;99.90;;;;;;4926230;28;200920;-88
2022/06/16 05:05:32;;;;;;;14.77;6.40;;;14.40;99.90;;;;;;4944225;28;47254;-87
2022/06/16 05:08:52;;;;;;;;;;;;;;;;;;;;;
2022/06/16 05:15:55;;;;;;;12.95;6.57;;;14.60;99.90;;;;;;4863507;23;981441;-69
2022/06/16 05:18:22;;;;;;;12.65;5.65;;;14.50;99.90;;;;;;5009292;28;207348;-69
2022/06/16 05:20:48;;;;;;;12.00;5.63;;;14.50;99.90;;;;;;4942017;28;215172;-69
2022/06/16 05:23:14;;;;;;;12.80;5.80;;;14.60;99.90;;;;;;5027855;28;20057;-69
2022/06/16 05:25:41;;;;;;;13.60;6.22;;;14.70;99.90;;;;;;4981632;28;205775;-69
2022/06/16 05:28:09;;;;;;;10.55;5.07;;;14.70;99.90;;;;;;5049667;22;20059;-70
2022/06/16 05:30:35;;;;;;;13.23;6.20;;;14.80;99.90;;;;;;4946119;28;254867;-72
2022/06/16 05:33:01;;;;;;;14.77;6.55;;;14.80;99.90;;;;;;4988585;28;20057;-71
2022/06/16 05:35:28;;;;;;;13.07;6.05;;;14.90;99.90;;;;;;4940561;28;209456;-72
2022/06/16 05:37:54;;;;;;;14.20;5.50;;;14.90;99.90;;;;;;5009372;28;20057;-72
2022/06/16 05:40:20;;;;;;;11.77;5.25;;;15.00;99.90;;;;;;4923749;28;214897;-72
2022/06/16 05:42:46;;;;;;;13.77;5.72;;;15.10;99.90;;;;;;4985673;28;20049;-72
2022/06/16 05:45:12;;;;;;;11.23;4.97;;;15.20;99.90;;;;;;4974904;28;265490;-71
2022/06/16 05:47:40;;;;;;;11.95;5.45;;;15.30;99.90;;;;;;4966416;28;211515;-73
2022/06/16 05:50:07;;;;;;;13.10;5.18;;;15.40;99.90;;;;;;4981694;28;265774;-72
2022/06/16 05:52:33;;;;;;;12.65;5.30;;;15.50;99.90;;;;;;4931618;28;209744;-72
2022/06/16 05:55:01;;;;;;;14.18;5.45;;;15.60;99.90;;;;;;4974099;28;259099;-72
2022/06/16 05:57:27;;;;;;;14.73;5.47;;;15.70;99.90;;;;;;4934480;28;199130;-72
2022/06/16 05:59:53;;;;;;;13.68;5.20;;;15.80;99.90;;;;;;4965317;28;243549;-72
2022/06/16 06:02:20;;;;;;;13.07;5.05;;;16.00;99.90;;;;;;4918791;28;211773;-72
2022/06/16 06:04:48;;;;;;;14.73;4.80;;;16.20;99.90;;;;;;4949585;28;184149;-74
2022/06/16 06:07:15;;;;;;;11.23;4.78;;;16.40;99.90;;;;;;4937039;28;209334;-72
2022/06/16 06:18:12;;;;;;;9.63;3.15;;;17.20;99.90;;;;;;4976092;28;108119;-72
2022/06/16 06:20:39;;;;;;;10.25;3.40;;;17.40;99.90;;;;;;4931669;28;200292;-73
2022/06/16 06:23:05;;;;;;;9.52;2.92;;;17.60;99.90;;;;;;5010082;28;20042;-73
2022/06/16 06:25:31;;;;;;;10.90;2.83;;;17.80;99.90;;;;;;4944019;28;260192;-73
2022/06/16 06:27:57;;;;;;;10.45;2.53;;;18.00;99.90;;;;;;4990474;28;20065;-73
2022/06/16 06:30:28;;;;;;;11.85;2.38;;;18.20;99.90;;;;;;4933940;28;253976;-73
2022/06/16 06:32:56;;;;;;;7.75;2.00;;;18.30;99.90;;;;;;4989608;28;20046;-72
2022/06/16 06:35:22;;;;;;;7.45;2.13;;;18.50;99.90;;;;;;4938235;28;250735;-72
2022/06/16 06:37:52;;;;;;;9.35;2.35;;;18.70;99.90;;;;;;4987043;28;21713;-71
2022/06/16 06:40:23;;;;;;;7.70;1.83;;;18.90;99.90;;;;;;4942614;28;261824;-71
2022/06/16 06:42:50;;;;;;;7.57;1.60;;;19.00;99.90;;;;;;5006183;28;20053;-72
2022/06/16 06:45:17;;;;;;;9.10;1.65;;;19.10;99.90;;;;;;4940209;28;261658;-68
2022/06/16 06:47:43;;;;;;;7.25;1.50;;;19.30;99.90;;;;;;5003148;28;20049;-72
2022/06/16 06:50:20;;;;;;;7.93;1.60;;;19.50;99.90;;;;;;4972721;28;152938;-72
2022/06/16 06:52:46;;;;;;;7.45;1.60;;;19.60;99.90;;;;;;4934001;28;203427;-72
2022/06/16 06:55:12;;;;;;;9.00;1.88;;;19.70;99.90;;;;;;4973773;28;260262;-71
2022/06/16 06:57:38;;;;;;;7.68;1.50;;;20.00;99.90;;;;;;4967084;28;132919;-72
2022/06/16 07:00:07;;;;;;;9.93;1.75;;;20.20;99.90;;;;;;4973966;28;77395;-72
2022/06/16 07:02:33;;;;;;;8.15;1.90;;;20.30;99.90;;;;;;4953627;28;206195;-73
2022/06/16 07:04:59;;;;;;;9.82;1.77;;;20.40;99.90;;;;;;4971966;28;256234;-72
2022/06/16 07:07:25;;;;;;;11.02;2.10;;;20.50;99.90;;;;;;4950109;28;205868;-73
2022/06/16 07:09:52;;;;;;;8.82;1.75;;;20.80;99.90;;;;;;4986871;28;253063;-73
2022/06/16 07:12:19;;;;;;;7.55;1.67;;;21.10;99.90;;;;;;4942152;28;192252;-72
2022/06/16 07:14:47;;;;;;;5.15;1.20;;;21.30;99.90;;;;;;4987175;28;253122;-74
2022/06/16 07:17:16;;;;;;;7.88;1.50;;;21.40;99.00;;;;;;4943670;28;209721;-73
2022/06/16 07:19:42;;;;;;;7.13;1.58;;;21.50;96.10;;;;;;4988829;28;253039;-73
2022/06/16 07:22:09;;;;;;;8.45;1.60;;;21.50;96.80;;;;;;4951582;28;205175;-72
2022/06/16 07:24:35;;;;;;;8.25;1.80;;;21.70;95.40;;;;;;4979287;28;20105;-73
2022/06/16 07:27:02;;;;;;;8.82;1.88;;;22.30;95.80;;;;;;4960433;28;207190;-73
2022/06/16 07:29:29;;;;;;;9.43;1.60;;;22.90;94.30;;;;;;4968975;28;115535;-72
2022/06/16 07:31:55;;;;;;;7.72;1.77;;;22.90;93.80;;;;;;4969942;28;205047;-72
2022/06/16 07:34:22;;;;;;;7.90;1.70;;;22.90;93.40;;;;;;4983409;28;253447;-72
2022/06/16 07:36:48;;;;;;;7.32;1.70;;;23.10;94.00;;;;;;4934158;28;197659;-72
2022/06/16 07:39:14;;;;;;;8.75;1.88;;;23.20;93.00;;;;;;4949712;28;244544;-72
2022/06/16 07:41:40;;;;;;;9.77;2.05;;;23.30;92.20;;;;;;4930821;28;206832;-72
2022/06/16 07:44:12;;;;;;;8.10;2.00;;;23.40;90.00;;;;;;4971450;28;256379;-72
2022/06/16 07:46:42;;;;;;;9.30;1.80;;;23.40;81.50;;;;;;4943753;28;205483;-73
2022/06/16 07:49:11;;;;;;;7.90;1.73;;;23.40;84.70;;;;;;4974381;28;251795;-73
2022/06/16 07:51:38;;;;;;;8.05;1.88;;;23.50;84.60;;;;;;4942359;28;203076;-72
2022/06/16 07:54:04;;;;;;;7.93;2.10;;;23.60;84.40;;;;;;4994686;28;272821;-73
2022/06/16 07:56:30;;;;;;;8.27;1.92;;;23.80;79.50;;;;;;4948790;28;206358;-73
2022/06/16 07:58:56;;;;;;;10.27;2.00;;;23.60;76.50;;;;;;4995325;28;20045;-72
2022/06/16 08:01:23;;;;;;;8.48;2.05;;;23.50;83.90;;;;;;4948823;28;227667;-74
2022/06/16 08:03:49;;;;;;;6.85;1.70;;;23.70;82.00;;;;;;5003147;28;20164;-72
2022/06/16 08:06:20;;;;;;;8.05;2.10;;;23.80;79.20;;;;;;4922246;28;267097;-72
2022/06/16 08:08:46;;;;;;;9.40;1.90;;;23.80;75.30;;;;;;4997270;28;20507;-72
2022/06/16 08:13:59;;;;;;;10.02;1.90;;;23.80;75.70;;;;;;4992721;28;20052;-71
2022/06/16 08:16:30;;;;;;;8.27;2.00;;;24.00;76.30;;;;;;4893043;28;209588;-72
2022/06/16 08:18:57;;;;;;;12.48;2.22;;;24.20;75.40;;;;;;4997040;28;20066;-73
2022/06/16 08:21:23;;;;;;;7.85;2.08;;;24.30;74.60;;;;;;4931825;28;210228;-73
2022/06/16 08:23:49;;;;;;;8.90;2.20;;;24.50;76.40;;;;;;4992203;28;20160;-72
2022/06/16 08:26:15;;;;;;;10.52;2.40;;;24.90;74.60;;;;;;4945654;28;264353;-72
2022/06/16 08:28:42;;;;;;;10.52;2.13;;;25.10;70.90;;;;;;5010813;28;20563;-73
2022/06/16 08:31:08;;;;;;;9.07;2.40;;;25.30;72.60;;;;;;4932647;28;258244;-72
2022/06/16 08:33:35;;;;;;;8.63;2.30;;;25.60;68.90;;;;;;4987468;28;20050;-74
2022/06/16 08:36:01;;;;;;;8.15;2.00;;;25.60;68.00;;;;;;4935662;28;210710;-73
2022/06/16 08:38:27;;;;;;;7.38;1.98;;;25.80;67.30;;;;;;5006660;28;20053;-73
2022/06/16 08:41:13;;;;;;;9.50;2.50;;;25.80;67.40;;;;;;4940910;28;272198;-74
2022/06/16 08:44:18;;;;;;;9.25;2.40;;;25.90;65.60;;;;;;5006235;28;20068;-74
2022/06/16 08:47:19;;;;;;;8.55;2.22;;;26.20;61.40;;;;;;4940661;28;207558;-75
2022/06/16 08:49:58;;;;;;;8.82;2.10;;;26.20;63.80;;;;;;4908339;29;56485;-73
2022/06/16 08:52:47;;;;;;;8.77;2.25;;;26.40;65.20;;;;;;4858576;29;206834;-73
2022/06/16 08:55:38;;;;;;;9.02;1.98;;;26.70;61.80;;;;;;4877850;29;200887;-73
2022/06/16 08:58:30;;;;;;;8.05;2.20;;;26.60;62.30;;;;;;4893527;29;106537;-74
2022/06/16 09:01:05;;;;;;;8.77;2.25;;;26.50;59.00;;;;;;4863417;28;206773;-73
2022/06/16 09:03:45;;;;;;;9.15;2.00;;;26.40;61.60;;;;;;4900807;29;20107;-74
2022/06/16 09:06:29;;;;;;;8.88;2.40;;;26.80;61.90;;;;;;4855038;29;205927;-73
2022/06/16 09:08:58;;;;;;;9.48;2.58;;;27.10;58.70;;;;;;4925673;29;20051;-73
2022/06/16 09:12:08;;;;;;;7.57;2.10;;;27.00;60.40;;;;;;4867499;29;206659;-75
2022/06/16 09:15:12;;;;;;;8.15;2.08;;;27.40;59.30;;;;;;4850387;29;211957;-74
2022/06/16 09:17:44;;;;;;;9.85;2.58;;;27.80;59.90;;;;;;4785154;29;207502;-73
2022/06/16 09:20:34;;;;;;;10.63;2.17;;;28.00;54.40;;;;;;4821989;29;211057;-73
2022/06/16 09:23:10;;;;;;;9.88;2.45;;;27.70;55.60;;;;;;4820985;29;208593;-73
2022/06/16 09:26:03;;;;;;;7.88;2.00;;;27.20;56.00;;;;;;4806506;29;207854;-74
2022/06/16 09:28:43;;;;;;;9.02;2.40;;;27.30;52.60;;;;;;4880016;29;20052;-73
2022/06/16 09:31:20;;;;;;;8.80;2.33;;;27.50;55.30;;;;;;4831542;29;217271;-71
2022/06/16 09:33:51;;;;;;;8.32;2.28;;;27.70;54.90;;;;;;4887134;29;20059;-72
2022/06/16 09:36:27;;;;;;;8.07;2.03;;;28.00;54.60;;;;;;4812954;29;207475;-73
2022/06/16 09:38:59;;;;;;;8.73;2.40;;;28.20;53.10;;;;;;4887055;29;20059;-73
2022/06/16 09:44:30;;;;;;;7.18;2.20;;;28.30;48.50;;;;;;4859614;29;120057;-73
2022/06/16 09:47:02;;;;;;;8.25;2.33;;;26.90;49.40;;;;;;4840489;29;206178;-73
2022/06/16 09:49:42;;;;;;;8.35;2.33;;;26.60;52.10;;;;;;4871856;29;20181;-73
2022/06/16 09:52:17;;;;;;;10.52;2.10;;;26.90;51.10;;;;;;4871538;29;208591;-73
2022/06/16 09:54:49;;;;;;;8.35;2.00;;;27.10;53.90;;;;;;4937887;28;20538;-73
2022/06/16 09:57:26;;;;;;;8.40;2.20;;;27.60;53.10;;;;;;4924784;28;212632;-74
2022/06/16 10:00:13;;;;;;;8.98;2.25;;;28.30;50.10;;;;;;4987727;28;250935;-74
2022/06/16 10:02:49;;;;;;;7.75;2.08;;;27.90;47.00;;;;;;4965237;28;28149;-73
2022/06/16 10:05:24;;;;;;;8.68;2.00;;;26.60;51.70;;;;;;4913002;28;207523;-73
2022/06/16 10:08:00;;;;;;;8.00;2.00;;;27.00;53.60;;;;;;4959958;28;204497;-72
2022/06/16 10:10:40;;;;;;;8.07;2.00;;;27.50;52.80;;;;;;4933708;28;315307;-72
2022/06/16 10:13:36;;;;;;;8.10;2.20;;;28.10;49.70;;;;;;5002523;28;20530;-72
2022/06/16 10:16:08;;;;;;;7.50;2.00;;;28.40;47.50;;;;;;4930566;28;255917;-73
2022/06/16 10:18:34;;;;;;;8.70;2.22;;;28.20;47.90;;;;;;4995385;28;20478;-72
2022/06/16 10:21:02;;;;;;;7.60;1.90;;;28.40;47.50;;;;;;4940210;28;270597;-72
2022/06/16 10:23:34;;;;;;;9.57;2.22;;;28.60;49.00;;;;;;4984029;28;20084;-72
2022/06/16 10:26:06;;;;;;;8.68;2.45;;;29.30;48.10;;;;;;4932634;28;262410;-72
2022/06/16 10:28:40;;;;;;;11.52;2.28;;;29.50;47.50;;;;;;4974490;28;20058;-73
2022/06/16 10:31:07;;;;;;;9.20;2.17;;;29.20;46.20;;;;;;4931123;28;266752;-74
2022/06/16 10:33:36;;;;;;;9.73;2.35;;;29.20;45.60;;;;;;4980019;28;20062;-73
2022/06/16 10:36:20;;;;;;;8.13;2.20;;;29.40;46.70;;;;;;4930528;28;266454;-73
2022/06/16 10:39:06;;;;;;;9.60;1.92;;;29.80;46.90;;;;;;4974322;28;20112;-73
2022/06/16 10:41:39;;;;;;;10.15;1.98;;;30.20;47.40;;;;;;4947208;28;207778;-75
2022/06/16 10:44:12;;;;;;;8.38;2.08;;;30.60;46.90;;;;;;4983848;28;253442;-73
2022/06/16 10:46:49;;;;;;;9.15;2.10;;;30.50;45.50;;;;;;4958272;28;208625;-73
2022/06/16 10:49:20;;;;;;;9.38;2.30;;;30.10;43.90;;;;;;4982961;28;257755;-73
2022/06/16 10:52:00;;;;;;;7.65;2.17;;;29.60;43.40;;;;;;4953080;28;219108;-73
2022/06/16 10:54:36;;;;;;;8.00;1.90;;;29.40;43.90;;;;;;4962760;28;259742;-73
2022/06/16 10:57:22;;;;;;;7.60;2.00;;;29.50;44.50;;;;;;4931410;28;242043;-73
2022/06/16 10:59:54;;;;;;;9.23;2.10;;;29.50;44.50;;;;;;4973468;28;61507;-73
2022/06/16 11:02:25;;;;;;;10.07;1.83;;;29.70;45.60;;;;;;4938943;28;206599;-73
2022/06/16 11:05:13;;;;;;;8.48;2.20;;;29.90;44.90;;;;;;4977109;28;112674;-72
2022/06/16 11:07:43;;;;;;;9.23;2.10;;;30.40;44.30;;;;;;4960485;28;207013;-74
2022/06/16 11:10:15;;;;;;;7.82;2.15;;;30.90;44.50;;;;;;4981905;28;259578;-73
2022/06/16 11:12:46;;;;;;;10.60;2.00;;;31.30;42.90;;;;;;4946897;28;159063;-73
2022/06/16 11:15:29;;;;;;;8.00;1.80;;;31.40;42.00;;;;;;4965419;28;257710;-72
2022/06/16 11:18:00;;;;;;;8.85;2.10;;;31.30;43.10;;;;;;4973280;28;106283;-73
2022/06/16 11:20:44;;;;;;;8.60;2.20;;;31.30;43.40;;;;;;4936239;28;268873;-72
2022/06/16 11:23:24;;;;;;;7.30;1.65;;;31.20;42.50;;;;;;4998983;28;20137;-73
2022/06/16 11:25:59;;;;;;;8.55;2.33;;;31.80;44.00;;;;;;4915409;28;206601;-73
2022/06/16 11:30:55;;;;;;;7.22;1.85;;;31.70;40.20;;;;;;4967082;28;268704;-72
2022/06/16 11:37:00;;;;;;;8.10;2.05;;;31.80;41.80;;;;;;4963566;28;266927;-71
2022/06/16 11:40:04;;;;;;;7.60;2.10;;;32.00;40.00;;;;;;5013326;28;254438;-71
2022/06/16 11:42:51;;;;;;;9.13;2.25;;;31.40;40.00;;;;;;5012926;28;214523;-70
2022/06/16 11:45:54;;;;;;;9.75;2.10;;;30.90;41.60;;;;;;4980576;28;270105;-70
2022/06/16 11:48:26;;;;;;;8.75;2.13;;;31.10;41.00;;;;;;5038917;28;20049;-71
2022/06/16 11:51:25;;;;;;;9.57;2.13;;;30.50;41.60;;;;;;4971413;28;247464;-71
2022/06/16 11:54:00;;;;;;;8.48;2.05;;;30.70;42.40;;;;;;5009111;28;20048;-71
2022/06/16 11:56:39;;;;;;;7.93;2.25;;;29.80;41.30;;;;;;4969039;28;206140;-72
2022/06/16 11:59:16;;;;;;;10.57;2.22;;;29.80;43.00;;;;;;5004183;28;262633;-71
2022/06/16 12:01:50;;;;;;;8.00;2.40;;;30.20;44.30;;;;;;4965041;28;207066;-72
2022/06/16 12:04:43;;;;;;;10.68;2.35;;;30.00;40.10;;;;;;4988260;28;260903;-71
2022/06/16 12:07:12;;;;;;;8.95;2.10;;;29.20;42.80;;;;;;4976873;28;205652;-71
2022/06/16 12:09:59;;;;;;;8.90;2.38;;;29.40;44.30;;;;;;5010790;28;55110;-71
2022/06/16 12:12:56;;;;;;;8.20;2.15;;;29.80;43.80;;;;;;5011963;28;209532;-71
2022/06/16 12:15:37;;;;;;;6.97;2.10;;;29.30;43.60;;;;;;4955599;28;253816;-70
2022/06/16 12:18:39;;;;;;;9.68;2.13;;;29.00;43.50;;;;;;5015527;28;20130;-71
2022/06/16 12:21:13;;;;;;;9.18;2.60;;;29.20;44.50;;;;;;4905587;28;210170;-71
2022/06/16 12:24:02;;;;;;;8.48;2.30;;;30.00;45.30;;;;;;4958152;28;20042;-71
2022/06/16 12:26:52;;;;;;;7.32;2.03;;;30.60;44.00;;;;;;4893546;28;254659;-71
2022/06/16 12:29:27;;;;;;;9.82;2.53;;;30.70;42.80;;;;;;4950905;28;56691;-72
2022/06/16 12:32:10;;;;;;;8.50;2.30;;;30.10;42.80;;;;;;4926361;28;206740;-71
2022/06/16 12:34:46;;;;;;;8.02;2.20;;;29.70;43.20;;;;;;4967545;28;44245;-70
2022/06/16 12:37:18;;;;;;;8.85;2.20;;;29.30;42.70;;;;;;4920167;28;44655;-71
2022/06/16 12:39:56;;;;;;;9.35;2.50;;;29.00;42.00;;;;;;4947256;28;20109;-70
2022/06/16 12:42:28;;;;;;;8.80;2.58;;;28.80;43.40;;;;;;4910946;28;206964;-71
2022/06/16 12:45:17;;;;;;;9.80;2.28;;;29.00;44.00;;;;;;4951391;28;91566;-70
2022/06/16 12:48:00;;;;;;;8.13;2.05;;;28.80;43.70;;;;;;4925289;28;152743;-71
2022/06/16 12:50:44;;;;;;;8.27;2.40;;;28.50;44.20;;;;;;4909133;28;207997;-71
2022/06/16 12:53:16;;;;;;;7.90;2.50;;;28.80;43.90;;;;;;4981240;28;20059;-71
2022/06/16 12:55:47;;;;;;;9.20;2.33;;;28.90;44.00;;;;;;4917003;28;206552;-71
2022/06/16 12:58:27;;;;;;;8.48;2.38;;;29.00;44.30;;;;;;5016852;28;20497;-70
2022/06/16 13:01:00;;;;;;;8.43;2.60;;;29.30;43.60;;;;;;4970682;28;207132;-71
2022/06/16 13:03:43;;;;;;;7.63;2.50;;;29.00;42.90;;;;;;5028949;28;20053;-71
2022/06/16 13:06:11;;;;;;;8.10;2.20;;;28.50;45.00;;;;;;4945065;28;272633;-70
2022/06/16 13:08:41;;;;;;;7.22;2.13;;;28.30;45.50;;;;;;5042867;28;20226;-71
2022/06/16 13:11:14;;;;;;;9.07;2.20;;;28.20;45.50;;;;;;4961986;28;259798;-69
2022/06/16 13:13:44;;;;;;;7.88;2.30;;;28.20;45.80;;;;;;5033418;28;20510;-72
2022/06/16 13:16:17;;;;;;;8.38;2.42;;;28.20;46.00;;;;;;4966785;28;261766;-70
2022/06/16 13:18:54;;;;;;;8.27;2.05;;;28.00;45.00;;;;;;5020318;28;20053;-71
2022/06/16 13:21:26;;;;;;;8.77;2.30;;;28.00;46.00;;;;;;4957798;28;187936;-71
2022/06/16 13:24:21;;;;;;;10.80;2.45;;;27.70;45.30;;;;;;5043614;28;20059;-72
2022/06/16 13:26:55;;;;;;;9.90;2.80;;;27.70;44.90;;;;;;4894875;28;210061;-72
2022/06/16 13:29:23;;;;;;;8.80;2.20;;;27.90;44.80;;;;;;4925107;28;239752;-71
2022/06/16 13:32:02;;;;;;;9.30;2.60;;;28.30;46.60;;;;;;4900889;28;209519;-71
2022/06/16 13:34:47;;;;;;;10.18;2.50;;;28.50;43.20;;;;;;4931834;28;94032;-69
2022/06/16 13:37:27;;;;;;;8.60;2.42;;;28.10;43.00;;;;;;4883405;29;206399;-70
2022/06/16 13:39:53;;;;;;;8.30;2.28;;;27.80;45.30;;;;;;4930151;28;124061;-69
2022/06/16 13:42:23;;;;;;;7.00;1.92;;;28.00;44.40;;;;;;4919327;28;205649;-69
2022/06/16 13:45:10;;;;;;;8.68;2.47;;;28.30;46.20;;;;;;4926671;28;232098;-69
2022/06/16 13:47:42;;;;;;;8.40;2.80;;;28.60;43.10;;;;;;4879668;29;147571;-69
2022/06/16 13:50:22;;;;;;;11.25;2.97;;;28.30;44.00;;;;;;4930093;28;251620;-69
2022/06/16 13:53:03;;;;;;;8.50;2.65;;;28.40;44.30;;;;;;4891428;29;206502;-69
2022/06/16 13:55:49;;;;;;;;;;;27.70;45.20;;;;;;4888043;28;226063;-69
2022/06/16 13:58:33;;;;;;;7.18;2.20;;;27.10;44.50;;;;;;4934524;28;19922;-69